Time;durP1;ratioP1;P1;durP2;ratioP2;P2;SDS_P1;SDS_P2;PMS_P1;PMS_P2;Temp;Humidity;BMP_temperature;BMP_pressure;BME280_temperature;BME280_humidity;BME280_pressure;Samples;Min_cycle;Max_cycle;Signal;HPM_P1;HPM_P2
2023/12/17 00:01:43;;;;;;;18.02;11.85;;;;;;;;;;4969764;28;20030;-64
2023/12/17 00:04:08;;;;;;;23.13;12.85;;;;;;;;;;4958545;28;20834;-64
2023/12/17 00:06:35;;;;;;;20.30;12.95;;;;;;;;;;4970981;28;20033;-64
2023/12/17 00:09:01;;;;;;;18.73;12.65;;;;;;;;;;4973753;28;20091;-64
2023/12/17 00:11:26;;;;;;;15.98;11.65;;;;;;;;;;4973235;28;20125;-63
2023/12/17 00:13:51;;;;;;;18.45;11.63;;;;;;;;;;4955019;28;20025;-63
2023/12/17 00:16:16;;;;;;;17.53;11.87;;;;;;;;;;4970791;28;20925;-64
2023/12/17 00:18:42;;;;;;;19.30;12.48;;;;;;;;;;4974829;28;20280;-63
2023/12/17 00:21:07;;;;;;;21.45;13.15;;;;;;;;;;4976908;28;20900;-64
2023/12/17 00:23:32;;;;;;;19.63;12.23;;;;;;;;;;4970558;28;20067;-63
2023/12/17 00:25:57;;;;;;;21.20;12.80;;;;;;;;;;4970556;28;20842;-63
2023/12/17 00:28:23;;;;;;;17.43;12.00;;;;;;;;;;4977363;28;21085;-64
2023/12/17 00:30:48;;;;;;;22.08;12.65;;;;;;;;;;4970235;28;21118;-63
2023/12/17 00:33:13;;;;;;;19.40;13.27;;;;;;;;;;4969831;28;20037;-64
2023/12/17 00:35:39;;;;;;;18.00;12.52;;;;;;;;;;4970200;28;20061;-64
2023/12/17 00:38:04;;;;;;;22.30;12.98;;;;;;;;;;4969284;28;20464;-64
2023/12/17 00:40:29;;;;;;;23.25;13.10;;;;;;;;;;4970205;28;20173;-64
2023/12/17 00:42:54;;;;;;;22.45;12.25;;;;;;;;;;4970740;28;20144;-65
2023/12/17 00:45:20;;;;;;;23.52;14.45;;;;;;;;;;4978270;28;20025;-64
2023/12/17 00:47:45;;;;;;;23.83;13.37;;;;;;;;;;4984856;28;20960;-64
2023/12/17 00:50:10;;;;;;;20.65;12.82;;;;;;;;;;4975222;28;21246;-64
2023/12/17 00:52:35;;;;;;;23.17;13.68;;;;;;;;;;4984619;28;20049;-64
2023/12/17 00:55:01;;;;;;;21.70;13.63;;;;;;;;;;4977553;28;20419;-64
2023/12/17 00:57:26;;;;;;;22.90;13.77;;;;;;;;;;4975078;28;20022;-66
2023/12/17 00:59:52;;;;;;;24.97;13.20;;;;;;;;;;4969525;28;20057;-64
2023/12/17 01:02:17;;;;;;;25.13;14.57;;;;;;;;;;4970153;28;21270;-64
2023/12/17 01:04:42;;;;;;;27.20;14.80;;;;;;;;;;4969591;28;20857;-65
2023/12/17 01:07:07;;;;;;;29.58;15.30;;;;;;;;;;4970173;28;20040;-64
2023/12/17 01:09:33;;;;;;;22.83;14.85;;;;;;;;;;4969126;28;20045;-63
2023/12/17 01:12:02;;;;;;;27.20;15.50;;;;;;;;;;4980884;28;20866;-63
2023/12/17 01:14:28;;;;;;;27.08;14.75;;;;;;;;;;4969684;28;20029;-64
2023/12/17 01:16:53;;;;;;;24.20;15.13;;;;;;;;;;4974226;28;20026;-63
2023/12/17 01:19:18;;;;;;;24.08;14.32;;;;;;;;;;4972532;28;21917;-63
2023/12/17 01:21:43;;;;;;;22.83;13.83;;;;;;;;;;4988182;28;20865;-64
2023/12/17 01:24:10;;;;;;;23.20;15.85;;;;;;;;;;4984869;28;21402;-64
2023/12/17 01:26:35;;;;;;;23.70;14.43;;;;;;;;;;4970154;28;20132;-64
2023/12/17 01:29:01;;;;;;;28.58;15.00;;;;;;;;;;4970749;28;20909;-63
2023/12/17 01:31:26;;;;;;;22.63;14.00;;;;;;;;;;4971020;28;20026;-64
2023/12/17 01:33:51;;;;;;;26.27;14.93;;;;;;;;;;4972651;28;20032;-63
2023/12/17 01:36:16;;;;;;;22.75;13.50;;;;;;;;;;4972437;28;20039;-64
2023/12/17 01:38:42;;;;;;;21.63;13.33;;;;;;;;;;4978836;28;20105;-63
2023/12/17 01:41:07;;;;;;;23.83;13.88;;;;;;;;;;4974637;28;21330;-63
2023/12/17 01:43:32;;;;;;;25.30;14.07;;;;;;;;;;4974414;28;20018;-64
2023/12/17 01:45:58;;;;;;;22.27;12.93;;;;;;;;;;4980553;28;20025;-66
2023/12/17 01:48:24;;;;;;;23.55;12.68;;;;;;;;;;4962276;28;20034;-63
2023/12/17 01:50:50;;;;;;;24.05;14.18;;;;;;;;;;4986469;28;20543;-66
2023/12/17 01:53:16;;;;;;;26.33;13.93;;;;;;;;;;4980066;28;20057;-63
2023/12/17 01:55:42;;;;;;;22.55;13.30;;;;;;;;;;4977045;28;20028;-63
2023/12/17 01:58:08;;;;;;;19.02;12.65;;;;;;;;;;4973165;28;20025;-63
2023/12/17 02:00:36;;;;;;;20.90;13.23;;;;;;;;;;4971105;28;20022;-63
2023/12/17 02:03:02;;;;;;;20.17;12.95;;;;;;;;;;4975636;28;20018;-64
2023/12/17 02:05:27;;;;;;;18.38;12.70;;;;;;;;;;4975731;28;21106;-64
2023/12/17 02:07:53;;;;;;;22.40;12.57;;;;;;;;;;4978353;28;20110;-64
2023/12/17 02:10:18;;;;;;;20.83;13.02;;;;;;;;;;4978411;28;20025;-65
2023/12/17 02:12:43;;;;;;;19.07;11.43;;;;;;;;;;4978202;28;20869;-65
2023/12/17 02:15:08;;;;;;;21.73;13.07;;;;;;;;;;4971763;28;21051;-65
2023/12/17 02:17:34;;;;;;;21.67;12.55;;;;;;;;;;4982272;28;21234;-65
2023/12/17 02:19:59;;;;;;;19.42;11.98;;;;;;;;;;4960342;28;20029;-64
2023/12/17 02:22:25;;;;;;;20.23;12.97;;;;;;;;;;4978246;28;20048;-65
2023/12/17 02:24:50;;;;;;;23.02;12.50;;;;;;;;;;4975600;28;20276;-65
2023/12/17 02:27:23;;;;;;;18.73;11.63;;;;;;;;;;4977105;28;20978;-65
2023/12/17 02:29:51;;;;;;;21.52;13.13;;;;;;;;;;4975923;28;20064;-65
2023/12/17 02:32:17;;;;;;;18.92;10.98;;;;;;;;;;4975180;28;20087;-65
2023/12/17 02:34:42;;;;;;;21.63;12.02;;;;;;;;;;4978417;28;20030;-65
2023/12/17 02:37:08;;;;;;;20.27;12.40;;;;;;;;;;4971716;28;20796;-65
2023/12/17 02:39:33;;;;;;;22.25;12.18;;;;;;;;;;4981938;28;20029;-65
2023/12/17 02:41:58;;;;;;;19.00;11.77;;;;;;;;;;4991055;28;20033;-65
2023/12/17 02:44:24;;;;;;;20.47;12.80;;;;;;;;;;4981661;28;20176;-65
2023/12/17 02:46:49;;;;;;;18.65;11.93;;;;;;;;;;4984773;28;21216;-65
2023/12/17 02:49:14;;;;;;;19.03;10.93;;;;;;;;;;4977496;28;20065;-65
2023/12/17 02:51:39;;;;;;;21.58;12.82;;;;;;;;;;4981438;28;21283;-65
2023/12/17 02:54:04;;;;;;;23.60;13.20;;;;;;;;;;4977504;28;20026;-65
2023/12/17 02:56:30;;;;;;;24.75;13.38;;;;;;;;;;4971831;28;20264;-65
2023/12/17 02:58:55;;;;;;;19.77;11.38;;;;;;;;;;4972322;28;20030;-65
2023/12/17 03:01:20;;;;;;;21.80;12.55;;;;;;;;;;4972123;28;20034;-65
2023/12/17 03:03:45;;;;;;;26.43;13.23;;;;;;;;;;4971580;28;20840;-65
2023/12/17 03:06:11;;;;;;;30.00;13.57;;;;;;;;;;4972610;28;21233;-65
2023/12/17 03:08:37;;;;;;;19.77;11.43;;;;;;;;;;4979235;28;21172;-65
2023/12/17 03:11:03;;;;;;;19.20;11.95;;;;;;;;;;4974366;28;20980;-65
2023/12/17 03:13:29;;;;;;;21.98;12.52;;;;;;;;;;4971076;28;20029;-65
2023/12/17 03:15:54;;;;;;;20.15;12.70;;;;;;;;;;4972158;28;20089;-65
2023/12/17 03:18:20;;;;;;;19.30;11.27;;;;;;;;;;4976746;28;20900;-65
2023/12/17 03:20:45;;;;;;;20.92;11.13;;;;;;;;;;4988290;28;20087;-65
2023/12/17 03:23:10;;;;;;;21.88;12.75;;;;;;;;;;4987765;28;20903;-65
2023/12/17 03:25:35;;;;;;;21.08;12.57;;;;;;;;;;4976438;28;20014;-65
2023/12/17 03:28:01;;;;;;;21.00;10.53;;;;;;;;;;4978807;28;20841;-67
2023/12/17 03:30:26;;;;;;;19.00;11.75;;;;;;;;;;4971847;28;21068;-66
2023/12/17 03:32:51;;;;;;;18.77;11.83;;;;;;;;;;4985395;28;20841;-65
2023/12/17 03:35:17;;;;;;;18.43;10.90;;;;;;;;;;4987690;28;21284;-65
2023/12/17 03:37:42;;;;;;;18.42;10.82;;;;;;;;;;4973711;28;21217;-67
2023/12/17 03:40:08;;;;;;;21.03;10.23;;;;;;;;;;4971374;28;20951;-66
2023/12/17 03:42:33;;;;;;;18.58;11.23;;;;;;;;;;4973664;28;21060;-66
2023/12/17 03:44:59;;;;;;;20.77;10.27;;;;;;;;;;4970440;28;20092;-65
2023/12/17 03:47:25;;;;;;;19.77;10.88;;;;;;;;;;4975620;28;20968;-66
2023/12/17 03:49:50;;;;;;;19.83;10.82;;;;;;;;;;4978184;28;20033;-66
2023/12/17 03:52:15;;;;;;;18.77;10.27;;;;;;;;;;4974016;28;20805;-66
2023/12/17 03:54:41;;;;;;;18.47;10.47;;;;;;;;;;4988386;28;20865;-66
2023/12/17 03:57:06;;;;;;;16.20;8.85;;;;;;;;;;4973883;28;21259;-67
2023/12/17 03:59:31;;;;;;;22.80;11.43;;;;;;;;;;4973718;28;20314;-66
2023/12/17 04:02:00;;;;;;;20.98;10.38;;;;;;;;;;4973531;28;20033;-66
2023/12/17 04:04:25;;;;;;;17.77;10.25;;;;;;;;;;4973879;28;20041;-66
2023/12/17 04:06:50;;;;;;;20.75;11.10;;;;;;;;;;4973516;28;20026;-66
2023/12/17 04:09:15;;;;;;;19.10;9.37;;;;;;;;;;4978072;28;20801;-66
2023/12/17 04:11:41;;;;;;;16.97;10.10;;;;;;;;;;4979297;28;21054;-66
2023/12/17 04:14:06;;;;;;;18.45;9.57;;;;;;;;;;4972210;28;21223;-66
2023/12/17 04:16:31;;;;;;;17.02;9.48;;;;;;;;;;4971615;28;20064;-66
2023/12/17 04:18:56;;;;;;;19.00;9.50;;;;;;;;;;4979359;28;20877;-66
2023/12/17 04:21:24;;;;;;;15.32;9.30;;;;;;;;;;4980984;28;20380;-66
2023/12/17 04:23:49;;;;;;;17.00;10.05;;;;;;;;;;4970570;28;20026;-66
2023/12/17 04:26:14;;;;;;;17.88;10.00;;;;;;;;;;4983558;28;20081;-66
2023/12/17 04:28:39;;;;;;;17.63;9.80;;;;;;;;;;4980214;28;20026;-66
2023/12/17 04:31:04;;;;;;;14.67;9.50;;;;;;;;;;4979072;28;20141;-66
2023/12/17 04:33:31;;;;;;;17.60;9.82;;;;;;;;;;4970461;28;20285;-66
2023/12/17 04:35:56;;;;;;;19.42;9.55;;;;;;;;;;4971011;28;20135;-66
2023/12/17 04:38:22;;;;;;;15.40;9.32;;;;;;;;;;4969969;28;20882;-66
2023/12/17 04:40:47;;;;;;;17.42;9.00;;;;;;;;;;4971370;28;20026;-67
2023/12/17 04:43:13;;;;;;;17.60;9.50;;;;;;;;;;4969571;28;20029;-66
2023/12/17 04:45:38;;;;;;;18.85;10.30;;;;;;;;;;4982300;28;20942;-66
2023/12/17 04:48:03;;;;;;;17.63;9.60;;;;;;;;;;4969888;28;20025;-66
2023/12/17 04:50:28;;;;;;;16.48;9.10;;;;;;;;;;4970635;28;20921;-66
2023/12/17 04:52:54;;;;;;;18.20;9.70;;;;;;;;;;4971461;28;20912;-66
2023/12/17 04:55:19;;;;;;;20.17;9.32;;;;;;;;;;4971309;28;21071;-66
2023/12/17 04:57:44;;;;;;;19.00;9.95;;;;;;;;;;4975524;28;20118;-66
2023/12/17 05:00:09;;;;;;;17.48;9.88;;;;;;;;;;4971935;28;20148;-66
2023/12/17 05:02:35;;;;;;;16.80;9.85;;;;;;;;;;4970155;28;20026;-66
2023/12/17 05:05:00;;;;;;;20.83;9.93;;;;;;;;;;4972613;28;20025;-66
2023/12/17 05:07:25;;;;;;;15.95;8.50;;;;;;;;;;4978536;28;20053;-65
2023/12/17 05:09:52;;;;;;;15.65;9.75;;;;;;;;;;4978317;28;20033;-65
2023/12/17 05:12:17;;;;;;;18.67;10.32;;;;;;;;;;4973879;28;20022;-66
2023/12/17 05:14:42;;;;;;;18.47;10.53;;;;;;;;;;4985044;28;20791;-66
2023/12/17 05:17:08;;;;;;;16.63;10.10;;;;;;;;;;4973686;28;21200;-65
2023/12/17 05:19:33;;;;;;;15.85;10.18;;;;;;;;;;4970102;28;20096;-66
2023/12/17 05:21:58;;;;;;;20.60;10.85;;;;;;;;;;4968864;28;20192;-66
2023/12/17 05:24:24;;;;;;;19.88;9.98;;;;;;;;;;4971933;28;20868;-65
2023/12/17 05:26:49;;;;;;;14.63;8.98;;;;;;;;;;4977309;28;20084;-65
2023/12/17 05:29:14;;;;;;;23.00;10.43;;;;;;;;;;4969954;28;20870;-66
2023/12/17 05:31:39;;;;;;;19.83;9.67;;;;;;;;;;4970517;28;20204;-66
2023/12/17 05:34:08;;;;;;;16.30;9.43;;;;;;;;;;4974204;28;20273;-66
2023/12/17 05:36:34;;;;;;;18.10;9.90;;;;;;;;;;4970637;28;20506;-66
2023/12/17 05:38:59;;;;;;;16.80;9.73;;;;;;;;;;4970700;28;20022;-65
2023/12/17 05:41:24;;;;;;;18.42;9.95;;;;;;;;;;4952837;28;20141;-64
2023/12/17 05:43:49;;;;;;;19.77;10.45;;;;;;;;;;4970026;28;20060;-65
2023/12/17 05:46:15;;;;;;;16.83;10.05;;;;;;;;;;4971384;28;20033;-65
2023/12/17 05:48:40;;;;;;;20.20;9.80;;;;;;;;;;4978847;28;20026;-64
2023/12/17 05:51:08;;;;;;;24.13;10.37;;;;;;;;;;4976740;28;21009;-65
2023/12/17 05:53:33;;;;;;;16.15;9.13;;;;;;;;;;4984289;28;20276;-65
2023/12/17 05:55:59;;;;;;;24.63;10.80;;;;;;;;;;4976157;28;20030;-65
2023/12/17 05:58:24;;;;;;;17.23;9.85;;;;;;;;;;4975504;28;20026;-65
2023/12/17 06:00:49;;;;;;;17.48;9.70;;;;;;;;;;4983743;28;20859;-64
2023/12/17 06:03:14;;;;;;;20.15;11.10;;;;;;;;;;4984286;28;20025;-65
2023/12/17 06:05:40;;;;;;;22.70;12.00;;;;;;;;;;4977147;28;20026;-65
2023/12/17 06:08:05;;;;;;;20.15;10.45;;;;;;;;;;4975308;28;20032;-65
2023/12/17 06:10:30;;;;;;;20.20;11.40;;;;;;;;;;4974798;28;20067;-64
2023/12/17 06:12:55;;;;;;;20.05;12.07;;;;;;;;;;4981697;28;20026;-65
2023/12/17 06:15:21;;;;;;;23.95;11.75;;;;;;;;;;4971631;28;20026;-64
2023/12/17 06:17:46;;;;;;;21.10;11.52;;;;;;;;;;4985018;28;20035;-66
2023/12/17 06:20:11;;;;;;;21.55;10.88;;;;;;;;;;4989328;28;20140;-65
2023/12/17 06:22:36;;;;;;;19.45;11.82;;;;;;;;;;4978810;28;20041;-65
2023/12/17 06:25:02;;;;;;;20.40;11.47;;;;;;;;;;4983167;28;20052;-66
2023/12/17 06:27:27;;;;;;;21.08;10.98;;;;;;;;;;4977964;28;20261;-66
2023/12/17 06:29:54;;;;;;;19.23;11.18;;;;;;;;;;4978995;28;20105;-66
2023/12/17 06:32:19;;;;;;;20.00;11.55;;;;;;;;;;4974551;28;20057;-66
2023/12/17 06:34:44;;;;;;;24.88;12.40;;;;;;;;;;4973305;28;20032;-66
2023/12/17 06:37:10;;;;;;;23.95;12.57;;;;;;;;;;4976778;28;20547;-66
2023/12/17 06:39:36;;;;;;;25.38;13.13;;;;;;;;;;4978164;28;20037;-66
2023/12/17 06:42:01;;;;;;;21.38;11.45;;;;;;;;;;4977863;28;20053;-66
2023/12/17 06:44:26;;;;;;;23.70;12.05;;;;;;;;;;4980700;28;20128;-67
2023/12/17 06:46:52;;;;;;;26.38;12.70;;;;;;;;;;4972209;28;20080;-66
2023/12/17 06:49:17;;;;;;;25.15;12.98;;;;;;;;;;4981834;28;20096;-66
2023/12/17 06:51:42;;;;;;;22.25;12.43;;;;;;;;;;4980923;28;20895;-66
2023/12/17 06:54:08;;;;;;;21.75;12.70;;;;;;;;;;4971987;28;20813;-70
2023/12/17 06:56:33;;;;;;;21.95;11.75;;;;;;;;;;4974221;28;20136;-66
2023/12/17 06:58:58;;;;;;;25.45;13.10;;;;;;;;;;4974534;28;20057;-66
2023/12/17 07:01:24;;;;;;;24.57;12.53;;;;;;;;;;4981481;28;20859;-66
2023/12/17 07:03:50;;;;;;;22.40;11.57;;;;;;;;;;4973098;28;20767;-66
2023/12/17 07:06:15;;;;;;;20.35;10.73;;;;;;;;;;4975647;28;20041;-66
2023/12/17 07:08:41;;;;;;;25.15;12.60;;;;;;;;;;4975773;28;20017;-66
2023/12/17 07:11:07;;;;;;;25.20;12.65;;;;;;;;;;4975838;28;20047;-66
2023/12/17 07:13:32;;;;;;;21.00;12.52;;;;;;;;;;4971673;28;20802;-66
2023/12/17 07:15:57;;;;;;;24.83;11.40;;;;;;;;;;4985750;28;20156;-66
2023/12/17 07:18:22;;;;;;;21.73;11.53;;;;;;;;;;4976155;28;20208;-66
2023/12/17 07:20:48;;;;;;;24.40;12.37;;;;;;;;;;4968653;28;21085;-67
2023/12/17 07:23:13;;;;;;;25.10;12.48;;;;;;;;;;4983206;28;21148;-66
2023/12/17 07:25:38;;;;;;;26.05;11.88;;;;;;;;;;4979574;28;20038;-66
2023/12/17 07:28:03;;;;;;;22.75;11.95;;;;;;;;;;4989124;28;20891;-66
2023/12/17 07:30:30;;;;;;;20.30;12.32;;;;;;;;;;4979991;28;20076;-66
2023/12/17 07:32:55;;;;;;;20.75;12.45;;;;;;;;;;4985233;28;20059;-66
2023/12/17 07:35:20;;;;;;;19.25;12.38;;;;;;;;;;4989111;28;20018;-66
2023/12/17 07:37:45;;;;;;;22.20;11.95;;;;;;;;;;4989667;28;20920;-66
2023/12/17 07:40:11;;;;;;;24.48;12.75;;;;;;;;;;4971469;28;20148;-66
2023/12/17 07:42:36;;;;;;;23.33;11.82;;;;;;;;;;4978018;28;20068;-66
2023/12/17 07:45:01;;;;;;;24.33;12.93;;;;;;;;;;4974741;28;20165;-66
2023/12/17 07:47:29;;;;;;;29.63;13.17;;;;;;;;;;4982881;28;20941;-66
2023/12/17 07:49:54;;;;;;;19.92;11.65;;;;;;;;;;4982314;28;20273;-65
2023/12/17 07:52:19;;;;;;;19.27;11.73;;;;;;;;;;4980008;28;20030;-66
2023/12/17 07:54:44;;;;;;;21.35;12.77;;;;;;;;;;4978616;28;20034;-66
2023/12/17 07:57:10;;;;;;;20.05;11.55;;;;;;;;;;4972819;28;20021;-66
2023/12/17 07:59:35;;;;;;;24.33;11.07;;;;;;;;;;4973238;28;20803;-66
2023/12/17 08:02:00;;;;;;;21.20;11.18;;;;;;;;;;4973570;28;20063;-66
2023/12/17 08:04:25;;;;;;;22.27;11.65;;;;;;;;;;4974279;28;20084;-66
2023/12/17 08:06:51;;;;;;;24.13;11.70;;;;;;;;;;4976186;28;20026;-66
2023/12/17 08:09:16;;;;;;;22.50;11.43;;;;;;;;;;4975994;28;20268;-66
2023/12/17 08:11:41;;;;;;;23.33;12.20;;;;;;;;;;4974454;28;20866;-65
2023/12/17 08:14:06;;;;;;;27.58;12.85;;;;;;;;;;4980073;28;20095;-66
2023/12/17 08:16:32;;;;;;;20.52;12.57;;;;;;;;;;4980717;28;20025;-66
2023/12/17 08:18:57;;;;;;;25.97;13.07;;;;;;;;;;4973233;28;20034;-66
2023/12/17 08:21:22;;;;;;;24.00;12.32;;;;;;;;;;4971774;28;20293;-66
2023/12/17 08:23:47;;;;;;;21.37;12.27;;;;;;;;;;4985278;28;20025;-66
2023/12/17 08:26:13;;;;;;;20.13;11.13;;;;;;;;;;4974948;28;20308;-66
2023/12/17 08:28:38;;;;;;;22.92;12.00;;;;;;;;;;4960757;28;20018;-66
2023/12/17 08:31:09;;;;;;;24.73;11.50;;;;;;;;;;4979216;28;20025;-66
2023/12/17 08:33:34;;;;;;;21.08;10.95;;;;;;;;;;4978059;28;20235;-66
2023/12/17 08:36:00;;;;;;;25.52;11.57;;;;;;;;;;4975992;28;20028;-66
2023/12/17 08:38:25;;;;;;;22.15;11.55;;;;;;;;;;4976197;28;20104;-64
2023/12/17 08:40:50;;;;;;;18.70;10.47;;;;;;;;;;4975499;28;20080;-65
2023/12/17 08:43:15;;;;;;;19.52;10.35;;;;;;;;;;4974247;28;20281;-64
2023/12/17 08:45:41;;;;;;;16.95;9.75;;;;;;;;;;4979855;28;20053;-64
2023/12/17 08:48:06;;;;;;;20.85;11.00;;;;;;;;;;4981452;28;20235;-64
2023/12/17 08:50:31;;;;;;;18.33;10.20;;;;;;;;;;4976594;28;20013;-64
2023/12/17 08:52:57;;;;;;;17.95;10.40;;;;;;;;;;4979241;28;20026;-65
2023/12/17 08:55:22;;;;;;;18.27;9.07;;;;;;;;;;4973916;28;20017;-65
2023/12/17 08:57:47;;;;;;;18.83;9.43;;;;;;;;;;4985263;28;20033;-64
2023/12/17 09:00:13;;;;;;;21.50;8.95;;;;;;;;;;4982054;28;20299;-64
2023/12/17 09:02:38;;;;;;;20.65;10.00;;;;;;;;;;4980754;28;20828;-64
2023/12/17 09:05:04;;;;;;;20.63;9.43;;;;;;;;;;4976990;28;20025;-64
2023/12/17 09:07:29;;;;;;;19.98;9.43;;;;;;;;;;4976207;28;21034;-64
2023/12/17 09:09:54;;;;;;;23.33;10.23;;;;;;;;;;4975370;28;20022;-64
2023/12/17 09:12:20;;;;;;;25.38;10.13;;;;;;;;;;4973823;28;20129;-65
2023/12/17 09:14:45;;;;;;;18.17;10.63;;;;;;;;;;4984422;28;20884;-64
2023/12/17 09:17:11;;;;;;;16.92;9.43;;;;;;;;;;4988302;28;20449;-64
2023/12/17 09:19:36;;;;;;;20.45;11.68;;;;;;;;;;4982437;28;20498;-65
2023/12/17 09:22:01;;;;;;;21.20;11.18;;;;;;;;;;4989062;28;20124;-64
2023/12/17 09:24:27;;;;;;;21.55;10.82;;;;;;;;;;4997225;28;20036;-64
2023/12/17 09:26:52;;;;;;;21.77;10.48;;;;;;;;;;4990236;28;20034;-64
2023/12/17 09:29:17;;;;;;;16.17;10.38;;;;;;;;;;4999869;28;20026;-62
2023/12/17 09:31:43;;;;;;;18.33;10.75;;;;;;;;;;4981042;28;20946;-69
2023/12/17 09:34:09;;;;;;;18.63;11.27;;;;;;;;;;4977603;28;20919;-65
2023/12/17 09:36:34;;;;;;;25.70;13.75;;;;;;;;;;4986160;28;20049;-66
2023/12/17 09:38:59;;;;;;;19.85;11.40;;;;;;;;;;4978562;28;20046;-67
2023/12/17 09:41:25;;;;;;;20.30;12.15;;;;;;;;;;4977388;28;20034;-66
2023/12/17 09:43:50;;;;;;;24.30;13.52;;;;;;;;;;4977646;28;20874;-77
2023/12/17 09:46:16;;;;;;;25.13;14.00;;;;;;;;;;4987222;28;20060;-77
2023/12/17 09:48:41;;;;;;;22.30;13.70;;;;;;;;;;4981501;28;20057;-74
2023/12/17 09:51:06;;;;;;;23.05;12.85;;;;;;;;;;4984741;28;20124;-73
2023/12/17 09:53:35;;;;;;;23.52;12.73;;;;;;;;;;4979711;28;20177;-76
2023/12/17 09:56:00;;;;;;;25.25;12.52;;;;;;;;;;4975424;28;20220;-78
2023/12/17 09:58:28;;;;;;;27.35;12.20;;;;;;;;;;4988380;28;20018;-70
2023/12/17 10:00:54;;;;;;;23.40;12.48;;;;;;;;;;4962290;28;20811;-72
2023/12/17 10:03:19;;;;;;;23.83;13.00;;;;;;;;;;4983696;28;20038;-66
2023/12/17 10:05:51;;;;;;;28.45;13.02;;;;;;;;;;4984711;28;20134;-64
2023/12/17 10:08:16;;;;;;;25.25;13.93;;;;;;;;;;4986620;28;20128;-64
2023/12/17 10:10:42;;;;;;;27.58;12.82;;;;;;;;;;4986586;28;20780;-64
2023/12/17 10:13:07;;;;;;;26.48;13.77;;;;;;;;;;4967817;28;20142;-64
2023/12/17 10:15:36;;;;;;;23.42;13.25;;;;;;;;;;4981607;28;20132;-62
2023/12/17 10:18:02;;;;;;;26.45;13.70;;;;;;;;;;4984740;28;20159;-64
2023/12/17 10:20:27;;;;;;;24.30;12.68;;;;;;;;;;4982248;28;20780;-63
2023/12/17 10:23:00;;;;;;;24.42;13.10;;;;;;;;;;4980544;28;20092;-63
2023/12/17 10:25:27;;;;;;;23.87;11.83;;;;;;;;;;4979591;28;20888;-62
2023/12/17 10:27:57;;;;;;;23.30;12.93;;;;;;;;;;4991348;28;20057;-64
2023/12/17 10:30:26;;;;;;;23.42;12.07;;;;;;;;;;4990507;28;20026;-63
2023/12/17 10:32:51;;;;;;;18.55;10.80;;;;;;;;;;4990115;28;20163;-62
2023/12/17 10:35:17;;;;;;;24.67;12.23;;;;;;;;;;4990052;28;20025;-62
2023/12/17 10:37:42;;;;;;;22.30;12.15;;;;;;;;;;4976766;28;20022;-63
2023/12/17 10:40:11;;;;;;;18.52;10.82;;;;;;;;;;4977902;28;20033;-62
2023/12/17 10:42:37;;;;;;;22.02;11.43;;;;;;;;;;4973574;28;20793;-62
2023/12/17 10:45:04;;;;;;;17.05;10.15;;;;;;;;;;4978147;28;20026;-61
2023/12/17 10:47:30;;;;;;;18.13;9.90;;;;;;;;;;4977926;28;20816;-61
2023/12/17 10:49:56;;;;;;;22.23;11.23;;;;;;;;;;4976344;28;20084;-62
2023/12/17 10:52:22;;;;;;;17.05;10.13;;;;;;;;;;4984995;28;20872;-62
2023/12/17 10:54:47;;;;;;;18.30;9.68;;;;;;;;;;4981656;28;20033;-62
2023/12/17 10:57:19;;;;;;;20.80;10.30;;;;;;;;;;4978018;28;20021;-63
2023/12/17 10:59:46;;;;;;;17.55;9.23;;;;;;;;;;4979635;28;20234;-63
2023/12/17 11:02:12;;;;;;;20.40;9.57;;;;;;;;;;4983420;28;20124;-62
2023/12/17 11:04:45;;;;;;;19.13;10.20;;;;;;;;;;4977761;28;20049;-63
2023/12/17 11:07:10;;;;;;;19.98;9.50;;;;;;;;;;4976318;28;20025;-62
2023/12/17 11:09:35;;;;;;;14.95;8.65;;;;;;;;;;4989562;28;20038;-64
2023/12/17 11:12:03;;;;;;;17.83;9.50;;;;;;;;;;4987121;28;20060;-64
2023/12/17 11:14:28;;;;;;;17.58;9.00;;;;;;;;;;4985306;28;20311;-62
2023/12/17 11:16:54;;;;;;;17.67;9.07;;;;;;;;;;4978523;28;20895;-62
2023/12/17 11:19:19;;;;;;;16.30;7.80;;;;;;;;;;4978997;28;20994;-62
2023/12/17 11:21:45;;;;;;;15.10;8.67;;;;;;;;;;4982510;28;21207;-63
2023/12/17 11:24:11;;;;;;;18.10;8.50;;;;;;;;;;4979735;28;20284;-64
2023/12/17 11:26:40;;;;;;;15.50;6.95;;;;;;;;;;4977406;28;20040;-64
2023/12/17 11:29:24;;;;;;;14.98;7.85;;;;;;;;;;4986132;28;20036;-63
2023/12/17 11:31:49;;;;;;;12.00;7.10;;;;;;;;;;4981352;28;20024;-63
2023/12/17 11:34:15;;;;;;;14.57;6.60;;;;;;;;;;4984084;28;20018;-64
2023/12/17 11:36:41;;;;;;;14.77;6.60;;;;;;;;;;4960861;28;20904;-64
2023/12/17 11:39:08;;;;;;;13.32;5.28;;;;;;;;;;4977142;28;20478;-63
2023/12/17 11:41:34;;;;;;;16.50;6.22;;;;;;;;;;4986482;28;20033;-64
2023/12/17 11:43:59;;;;;;;9.07;4.38;;;;;;;;;;4974379;28;20026;-61
2023/12/17 11:46:25;;;;;;;9.05;4.72;;;;;;;;;;4971046;28;20148;-62
2023/12/17 11:48:51;;;;;;;9.65;4.93;;;;;;;;;;4994969;28;20017;-62
2023/12/17 11:51:25;;;;;;;10.80;4.57;;;;;;;;;;4998583;28;20033;-61
2023/12/17 11:53:51;;;;;;;;;;;;;;;;;;4984473;28;20038;-67
2023/12/17 11:56:26;;;;;;;7.43;3.90;;;;;;;;;;4987338;28;19913;-64
2023/12/17 11:58:53;;;;;;;12.18;3.75;;;;;;;;;;4996674;28;20027;-64
2023/12/17 12:01:18;;;;;;;12.95;4.15;;;;;;;;;;4978259;28;20041;-64
2023/12/17 12:03:44;;;;;;;9.63;3.72;;;;;;;;;;4983450;28;20026;-64
2023/12/17 12:06:11;;;;;;;10.05;3.70;;;;;;;;;;4983750;28;20111;-62
2023/12/17 12:08:37;;;;;;;10.95;3.95;;;;;;;;;;4987729;28;20029;-62
2023/12/17 12:11:03;;;;;;;11.90;3.72;;;;;;;;;;4976347;28;20040;-63
2023/12/17 12:13:29;;;;;;;12.93;4.18;;;;;;;;;;4983754;28;20128;-64
2023/12/17 12:15:58;;;;;;;9.68;4.25;;;;;;;;;;4977292;28;20033;-64
2023/12/17 12:18:23;;;;;;;13.55;3.55;;;;;;;;;;4977797;28;20100;-64
2023/12/17 12:20:49;;;;;;;17.70;3.78;;;;;;;;;;4977530;28;20136;-63
2023/12/17 12:23:14;;;;;;;8.35;3.17;;;;;;;;;;4981983;28;20017;-64
2023/12/17 12:25:39;;;;;;;7.22;3.03;;;;;;;;;;4978598;28;20025;-64
2023/12/17 12:28:06;;;;;;;9.55;3.60;;;;;;;;;;4982478;28;20475;-64
2023/12/17 12:30:32;;;;;;;10.77;3.90;;;;;;;;;;4982360;28;20021;-64
2023/12/17 12:33:10;;;;;;;6.63;2.60;;;;;;;;;;4977485;28;20070;-62
2023/12/17 12:35:37;;;;;;;12.38;3.00;;;;;;;;;;4995299;28;20101;-62
2023/12/17 12:38:15;;;;;;;6.50;3.20;;;;;;;;;;4978366;28;20894;-62
2023/12/17 12:40:40;;;;;;;8.98;3.67;;;;;;;;;;4988875;28;20027;-62
2023/12/17 12:43:07;;;;;;;7.53;3.30;;;;;;;;;;4977070;28;20905;-65
2023/12/17 12:45:32;;;;;;;8.55;3.28;;;;;;;;;;4978662;28;20271;-61
2023/12/17 12:47:57;;;;;;;8.05;3.15;;;;;;;;;;4985124;28;20804;-61
2023/12/17 12:50:23;;;;;;;8.68;2.65;;;;;;;;;;5000995;28;20075;-61
2023/12/17 12:52:48;;;;;;;8.45;2.88;;;;;;;;;;4996238;28;20080;-60
2023/12/17 12:55:13;;;;;;;9.20;2.53;;;;;;;;;;4976344;28;20932;-63
2023/12/17 12:57:38;;;;;;;12.07;3.47;;;;;;;;;;4994867;28;20028;-61
2023/12/17 13:00:04;;;;;;;9.83;3.57;;;;;;;;;;4992311;28;20030;-61
2023/12/17 13:02:31;;;;;;;11.70;3.22;;;;;;;;;;4987291;28;20283;-62
2023/12/17 13:04:56;;;;;;;7.53;2.95;;;;;;;;;;4980934;28;20124;-60
2023/12/17 13:07:21;;;;;;;7.93;2.92;;;;;;;;;;4984077;28;20075;-60
2023/12/17 13:09:47;;;;;;;9.60;3.23;;;;;;;;;;4998655;28;20128;-60
2023/12/17 13:12:12;;;;;;;9.75;3.40;;;;;;;;;;4986684;28;20273;-61
2023/12/17 13:14:37;;;;;;;10.05;3.13;;;;;;;;;;4986340;28;20021;-61
2023/12/17 13:17:03;;;;;;;11.52;3.10;;;;;;;;;;4989453;28;20092;-61
2023/12/17 13:19:28;;;;;;;8.30;3.45;;;;;;;;;;4984721;28;20817;-60
2023/12/17 13:21:53;;;;;;;13.10;3.75;;;;;;;;;;4992862;28;20021;-60
2023/12/17 13:24:18;;;;;;;7.77;3.00;;;;;;;;;;5004271;28;20392;-60
2023/12/17 13:26:44;;;;;;;7.25;2.95;;;;;;;;;;4984590;28;20733;-61
2023/12/17 13:29:09;;;;;;;5.93;2.17;;;;;;;;;;4978267;28;20128;-63
2023/12/17 13:31:35;;;;;;;12.52;2.97;;;;;;;;;;4979516;28;20026;-62
2023/12/17 13:34:01;;;;;;;9.73;3.00;;;;;;;;;;4999850;28;20532;-61
2023/12/17 13:36:26;;;;;;;9.10;3.10;;;;;;;;;;4980390;28;20038;-61
2023/12/17 13:38:51;;;;;;;7.90;3.10;;;;;;;;;;4989611;28;20030;-61
2023/12/17 13:41:17;;;;;;;7.90;3.10;;;;;;;;;;5003809;28;20389;-61
2023/12/17 13:43:42;;;;;;;11.20;2.95;;;;;;;;;;4995670;28;20346;-61
2023/12/17 13:46:07;;;;;;;5.60;2.80;;;;;;;;;;4981472;28;20217;-60
2023/12/17 13:48:32;;;;;;;9.27;2.93;;;;;;;;;;4981694;28;20030;-61
2023/12/17 13:50:58;;;;;;;7.53;2.47;;;;;;;;;;4994057;28;20276;-61
2023/12/17 13:53:23;;;;;;;6.25;2.72;;;;;;;;;;4979960;28;20277;-61
2023/12/17 13:55:48;;;;;;;10.73;2.88;;;;;;;;;;5001070;28;20029;-61
2023/12/17 13:58:14;;;;;;;8.07;3.03;;;;;;;;;;5002391;28;20386;-62
2023/12/17 14:00:39;;;;;;;9.32;3.08;;;;;;;;;;4979632;28;20076;-59
2023/12/17 14:03:05;;;;;;;5.43;2.50;;;;;;;;;;4992126;28;20144;-59
2023/12/17 14:05:31;;;;;;;8.30;3.17;;;;;;;;;;4986692;28;20028;-58
2023/12/17 14:07:57;;;;;;;10.82;2.70;;;;;;;;;;4979129;28;20022;-64
2023/12/17 14:10:22;;;;;;;7.10;2.20;;;;;;;;;;5002494;28;20030;-64
2023/12/17 14:12:48;;;;;;;6.30;2.65;;;;;;;;;;5019347;28;20533;-63
2023/12/17 14:15:13;;;;;;;8.53;2.60;;;;;;;;;;5013890;28;20021;-63